createdAt,value
2018-12-12T00:01:19.315Z,5.40
2018-12-12T00:03:51.881Z,5.40
2018-12-12T00:06:20.848Z,5.40
2018-12-12T00:08:54.942Z,5.30
2018-12-12T00:11:23.950Z,5.30
2018-12-12T00:13:58.283Z,5.30
2018-12-12T00:16:27.314Z,5.20
2018-12-12T00:19:00.810Z,5.20
2018-12-12T00:21:30.326Z,5.20
2018-12-12T00:24:05.200Z,5.10
2018-12-12T00:26:34.491Z,5.10
2018-12-12T00:29:07.280Z,5.10
2018-12-12T00:31:36.337Z,5.00
2018-12-12T00:34:10.885Z,5.00
2018-12-12T00:36:39.826Z,5.10
2018-12-12T00:39:14.338Z,5.00
2018-12-12T00:41:43.635Z,5.00
2018-12-12T00:44:14.909Z,5.00
2018-12-12T00:46:44.552Z,4.90
2018-12-12T00:49:21.030Z,4.90
2018-12-12T00:51:50.342Z,4.90
2018-12-12T00:54:19.764Z,4.90
2018-12-12T00:56:48.742Z,4.90
2018-12-12T00:59:23.666Z,4.90
2018-12-12T01:01:52.710Z,4.90
2018-12-12T01:04:25.166Z,4.80
2018-12-12T01:06:54.844Z,4.90
2018-12-12T01:09:27.536Z,4.80
2018-12-12T01:12:01.619Z,4.70
2018-12-12T01:14:32.037Z,4.80
2018-12-12T01:17:00.961Z,4.80
2018-12-12T01:19:33.047Z,4.70
2018-12-12T01:22:02.403Z,4.70
2018-12-12T01:24:35.178Z,4.70
2018-12-12T01:27:04.078Z,4.70
2018-12-12T01:29:37.500Z,4.70
2018-12-12T01:32:07.165Z,4.70
2018-12-12T01:34:40.654Z,4.70
2018-12-12T01:37:10.133Z,4.70
2018-12-12T01:39:43.792Z,4.80
2018-12-12T01:42:13.180Z,4.80
2018-12-12T01:44:49.464Z,4.80
2018-12-12T01:47:18.402Z,4.70
2018-12-12T01:49:48.846Z,4.80
2018-12-12T01:52:17.760Z,4.80
2018-12-12T01:54:54.060Z,4.70
2018-12-12T01:57:23.112Z,4.70
2018-12-12T01:59:55.539Z,4.70
2018-12-12T02:02:25.082Z,4.80
2018-12-12T02:04:57.446Z,4.80
2018-12-12T02:07:27.231Z,4.70
2018-12-12T02:10:00.622Z,4.70
2018-12-12T02:12:30.119Z,4.70
2018-12-12T02:15:03.660Z,4.60
2018-12-12T02:17:32.954Z,4.60
2018-12-12T02:20:06.142Z,4.60
2018-12-12T02:22:35.126Z,4.60
2018-12-12T02:25:10.509Z,4.70
2018-12-12T02:27:39.815Z,4.70
2018-12-12T02:30:12.304Z,4.70
2018-12-12T02:32:41.195Z,4.70
2018-12-12T02:35:14.136Z,4.70
2018-12-12T02:37:43.039Z,4.60
2018-12-12T02:40:18.612Z,4.70
2018-12-12T02:42:47.847Z,4.70
2018-12-12T02:45:20.463Z,4.70
2018-12-12T02:47:49.770Z,4.70
2018-12-12T02:50:22.856Z,4.60
2018-12-12T02:52:53.007Z,4.60
2018-12-12T02:55:26.098Z,4.60
2018-12-12T02:57:55.500Z,4.60
2018-12-12T03:00:32.042Z,4.60
2018-12-12T03:03:01.364Z,4.60
2018-12-12T03:05:31.226Z,4.60
2018-12-12T03:08:01.235Z,4.50
2018-12-12T03:10:32.539Z,4.50
2018-12-12T03:13:02.145Z,4.50
2018-12-12T03:15:39.162Z,4.50
2018-12-12T03:18:08.637Z,4.40
2018-12-12T03:20:37.911Z,4.40
2018-12-12T03:23:07.635Z,4.40
2018-12-12T03:25:39.803Z,4.40
2018-12-12T03:28:08.930Z,4.30
2018-12-12T03:30:42.303Z,4.30
2018-12-12T03:33:11.696Z,4.20
2018-12-12T03:35:45.291Z,4.20
2018-12-12T03:38:14.792Z,4.30
2018-12-12T03:40:48.571Z,4.20
2018-12-12T03:43:17.822Z,4.20
2018-12-12T03:45:54.332Z,4.20
2018-12-12T03:48:23.806Z,4.20
2018-12-12T03:50:53.891Z,4.20
2018-12-12T03:53:23.424Z,4.10
2018-12-12T03:55:57.306Z,4.20
2018-12-12T03:58:27.217Z,4.10
2018-12-12T04:01:00.167Z,4.10
2018-12-12T04:03:29.807Z,4.10
2018-12-12T04:06:03.042Z,4.10
2018-12-12T04:08:31.928Z,4.10
2018-12-12T04:11:05.474Z,4.10
2018-12-12T04:13:35.011Z,4.10
2018-12-12T04:16:08.283Z,4.10
2018-12-12T04:18:37.753Z,4.00
2018-12-12T04:21:13.264Z,4.00
2018-12-12T04:23:42.182Z,4.00
2018-12-12T04:26:14.641Z,4.10
2018-12-12T04:28:44.074Z,4.00
2018-12-12T04:31:16.983Z,3.90
2018-12-12T04:33:45.889Z,4.00
2018-12-12T04:36:18.271Z,4.00
2018-12-12T04:38:47.446Z,4.00
2018-12-12T04:41:22.273Z,4.10
2018-12-12T04:43:51.200Z,4.10
2018-12-12T04:46:23.331Z,4.10
2018-12-12T04:48:52.214Z,4.10
2018-12-12T04:51:25.648Z,4.10
2018-12-12T04:53:54.983Z,4.20
2018-12-12T04:56:31.354Z,4.20
2018-12-12T04:59:00.435Z,4.30
2018-12-12T05:01:30.723Z,4.30
2018-12-12T05:03:59.607Z,4.30
2018-12-12T05:06:34.455Z,4.40
2018-12-12T05:09:04.596Z,4.30
2018-12-12T05:11:35.346Z,4.30
2018-12-12T05:14:05.023Z,4.40
2018-12-12T05:16:37.442Z,4.30
2018-12-12T05:19:06.360Z,4.40
2018-12-12T05:21:40.279Z,4.40
2018-12-12T05:24:09.381Z,4.50
2018-12-12T05:26:45.537Z,4.50
2018-12-12T05:29:14.793Z,4.50
2018-12-12T05:31:45.092Z,4.50
2018-12-12T05:34:14.030Z,4.50
2018-12-12T05:36:49.742Z,4.50
2018-12-12T05:39:18.702Z,4.60
2018-12-12T05:41:51.314Z,4.60
2018-12-12T05:44:20.599Z,4.70
2018-12-12T05:46:57.700Z,4.70
2018-12-12T05:49:26.934Z,4.60
2018-12-12T05:51:56.778Z,4.70
2018-12-12T05:54:25.879Z,4.70
2018-12-12T05:57:02.784Z,4.70
2018-12-12T05:59:31.760Z,4.70
2018-12-12T06:02:03.754Z,4.80
2018-12-12T06:04:33.011Z,4.80
2018-12-12T06:07:05.487Z,4.80
2018-12-12T06:09:34.458Z,4.80
2018-12-12T06:12:12.473Z,4.80
2018-12-12T06:14:41.438Z,4.90
2018-12-12T06:17:12.916Z,4.90
2018-12-12T06:19:42.371Z,4.90
2018-12-12T06:22:15.369Z,4.90
2018-12-12T06:24:44.726Z,4.90
2018-12-12T06:27:17.944Z,5.00
2018-12-12T06:29:46.886Z,5.00
2018-12-12T06:32:20.042Z,5.00
2018-12-12T06:34:49.012Z,4.90
2018-12-12T06:37:21.782Z,5.00
2018-12-12T06:39:51.095Z,5.00
2018-12-12T06:42:24.050Z,5.00
2018-12-12T06:44:53.025Z,5.00
2018-12-12T06:47:30.637Z,5.00
2018-12-12T06:49:59.630Z,5.00
2018-12-12T06:52:28.606Z,5.10
2018-12-12T06:54:57.907Z,5.10
2018-12-12T06:57:31.016Z,5.10
2018-12-12T06:59:59.960Z,5.10
2018-12-12T07:02:34.036Z,5.10
2018-12-12T07:05:03.390Z,5.10
2018-12-12T07:07:36.324Z,5.00
2018-12-12T07:10:05.690Z,5.10
2018-12-12T07:12:42.152Z,5.10
2018-12-12T07:15:11.175Z,5.10
2018-12-12T07:17:41.528Z,5.10
2018-12-12T07:20:11.959Z,5.10
2018-12-12T07:22:44.832Z,5.10
2018-12-12T07:25:13.750Z,5.10
2018-12-12T07:27:49.295Z,5.10
2018-12-12T07:30:18.372Z,5.10
2018-12-12T07:32:51.639Z,5.10
2018-12-12T07:35:20.818Z,5.10
2018-12-12T07:37:54.050Z,5.10
2018-12-12T07:40:25.583Z,5.10
2018-12-12T07:42:57.819Z,5.00
2018-12-12T07:45:26.871Z,4.90
2018-12-12T07:48:01.543Z,5.00
2018-12-12T07:50:31.034Z,5.00
2018-12-12T07:53:04.510Z,4.90
2018-12-12T07:55:33.958Z,5.00
2018-12-12T07:58:06.831Z,5.00
2018-12-12T08:00:35.846Z,5.00
2018-12-12T08:03:12.765Z,5.00
2018-12-12T08:05:42.008Z,5.10
2018-12-12T08:08:12.870Z,5.10
2018-12-12T08:10:42.134Z,5.10
2018-12-12T08:13:15.036Z,5.00
2018-12-12T08:15:44.181Z,5.10
2018-12-12T08:18:20.754Z,5.10
2018-12-12T08:20:49.800Z,5.10
2018-12-12T08:23:20.263Z,5.10
2018-12-12T08:25:49.339Z,5.20
2018-12-12T08:28:26.500Z,5.20
2018-12-12T08:30:55.559Z,5.20
2018-12-12T08:33:25.226Z,5.20
2018-12-12T08:35:54.445Z,5.20
2018-12-12T08:38:31.262Z,5.20
2018-12-12T08:41:00.559Z,5.30
2018-12-12T08:43:31.027Z,5.30
2018-12-12T08:46:00.040Z,5.30
2018-12-12T08:48:31.852Z,5.40
2018-12-12T08:51:01.960Z,5.40
2018-12-12T08:53:34.993Z,5.40
2018-12-12T08:56:04.365Z,5.50
2018-12-12T08:58:40.876Z,5.50
2018-12-12T09:01:09.842Z,5.50
2018-12-12T09:03:39.252Z,5.50
2018-12-12T09:06:08.237Z,5.50
2018-12-12T09:08:40.846Z,5.60
2018-12-12T09:11:10.301Z,5.60
2018-12-12T09:13:44.198Z,5.60
2018-12-12T09:16:13.757Z,5.60
2018-12-12T09:18:47.269Z,5.70
2018-12-12T09:21:16.314Z,5.70
2018-12-12T09:23:49.789Z,5.70
2018-12-12T09:26:18.837Z,5.70
2018-12-12T09:28:52.356Z,5.70
2018-12-12T09:31:22.896Z,5.70
2018-12-12T09:33:59.573Z,5.70
2018-12-12T09:36:28.627Z,5.70
2018-12-12T09:38:58.913Z,5.80
2018-12-12T09:41:28.052Z,5.70
2018-12-12T09:44:03.355Z,5.70
2018-12-12T09:46:32.817Z,5.70
2018-12-12T09:49:05.862Z,5.70
2018-12-12T09:51:34.838Z,5.70
2018-12-12T09:54:11.983Z,5.70
2018-12-12T09:56:41.087Z,5.80
2018-12-12T09:59:11.699Z,5.80
2018-12-12T10:01:42.085Z,5.80
2018-12-12T10:04:14.813Z,5.80
2018-12-12T10:06:43.818Z,5.90
2018-12-12T10:09:17.187Z,6.00
2018-12-12T10:11:46.185Z,6.00
2018-12-12T10:14:22.375Z,6.00
2018-12-12T10:16:51.648Z,6.10
2018-12-12T10:19:24.575Z,6.10
2018-12-12T10:21:54.317Z,6.10
2018-12-12T10:24:24.787Z,6.20
2018-12-12T10:26:54.154Z,6.20
2018-12-12T10:29:30.647Z,6.20
2018-12-12T10:31:59.608Z,6.20
2018-12-12T10:34:29.046Z,6.20
2018-12-12T10:36:58.059Z,6.20
2018-12-12T10:39:32.423Z,6.30
2018-12-12T10:42:01.887Z,6.30
2018-12-12T10:44:34.948Z,6.30
2018-12-12T10:47:04.585Z,6.30
2018-12-12T10:49:36.894Z,6.30
2018-12-12T10:52:05.979Z,6.20
2018-12-12T10:54:43.543Z,6.20
2018-12-12T10:57:12.621Z,6.30
2018-12-12T10:59:42.576Z,6.30
2018-12-12T11:02:17.583Z,6.30
2018-12-12T11:04:46.767Z,6.20
2018-12-12T11:07:15.892Z,6.20
2018-12-12T11:09:47.172Z,6.20
2018-12-12T11:12:16.177Z,6.10
2018-12-12T11:14:49.502Z,6.10
2018-12-12T11:17:18.516Z,6.20
2018-12-12T11:19:52.542Z,6.20
2018-12-12T11:22:21.642Z,6.20
2018-12-12T11:24:57.002Z,6.20
2018-12-12T11:27:26.869Z,6.20
2018-12-12T11:29:59.189Z,6.30
2018-12-12T11:32:28.248Z,6.20
2018-12-12T11:35:01.891Z,6.20
2018-12-12T11:37:47.314Z,6.20
2018-12-12T11:40:17.021Z,6.30
2018-12-12T11:42:46.358Z,6.30
2018-12-12T11:45:15.775Z,6.30
2018-12-12T11:47:45.564Z,6.40
2018-12-12T11:50:14.691Z,6.40
2018-12-12T11:52:43.832Z,6.40
2018-12-12T11:55:13.967Z,6.50
2018-12-12T11:57:43.199Z,6.50
2018-12-12T12:00:20.123Z,6.50
2018-12-12T12:02:49.630Z,6.50
2018-12-12T12:05:18.862Z,6.50
2018-12-12T12:07:48.303Z,6.50
2018-12-12T12:10:25.107Z,6.50
2018-12-12T12:12:54.303Z,6.50
2018-12-12T12:15:23.499Z,6.50
2018-12-12T12:17:52.878Z,6.50
2018-12-12T12:20:29.693Z,6.50
2018-12-12T12:22:59.003Z,6.60
2018-12-12T12:25:29.149Z,6.60
2018-12-12T12:27:59.207Z,6.60
2018-12-12T12:30:35.719Z,6.60
2018-12-12T12:33:05.155Z,6.50
2018-12-12T12:35:34.206Z,6.50
2018-12-12T12:38:03.366Z,6.50
2018-12-12T12:40:36.145Z,6.50
2018-12-12T12:43:05.772Z,6.50
2018-12-12T12:45:38.663Z,6.50
2018-12-12T12:48:07.746Z,6.40
2018-12-12T12:50:45.215Z,6.50
2018-12-12T12:53:14.854Z,6.40
2018-12-12T12:55:44.012Z,6.40
2018-12-12T12:58:13.461Z,6.40
2018-12-12T13:00:50.674Z,6.40
2018-12-12T13:03:20.010Z,6.40
2018-12-12T13:07:18.455Z,6.40
2018-12-12T13:09:51.313Z,6.40
2018-12-12T13:12:20.406Z,6.40
2018-12-12T13:14:57.938Z,6.40
2018-12-12T13:17:28.616Z,6.40
2018-12-12T13:21:27.059Z,6.40
2018-12-12T13:24:01.668Z,6.40
2018-12-12T13:33:34.082Z,6.40
2018-12-12T13:36:07.431Z,6.40
2018-12-12T13:38:37.317Z,6.40
2018-12-12T13:41:14.452Z,6.40
2018-12-12T13:43:43.506Z,6.30
2018-12-12T13:46:12.576Z,6.40
2018-12-12T13:48:41.616Z,6.40
2018-12-12T13:51:18.467Z,6.30
2018-12-12T13:53:47.471Z,6.40
2018-12-12T13:56:17.680Z,6.40
2018-12-12T13:58:46.969Z,6.40
2018-12-12T14:01:23.014Z,6.50
2018-12-12T14:03:52.254Z,6.40
2018-12-12T14:06:24.443Z,6.50
2018-12-12T14:08:53.707Z,6.40
2018-12-12T14:11:25.782Z,6.40
2018-12-12T14:13:54.818Z,6.40
2018-12-12T14:16:31.774Z,6.40
2018-12-12T14:19:00.958Z,6.40
2018-12-12T14:21:38.760Z,6.40
2018-12-12T14:24:08.079Z,6.40
2018-12-12T14:26:37.213Z,6.30
2018-12-12T14:29:07.128Z,6.30
2018-12-12T14:31:39.253Z,6.30
2018-12-12T14:34:08.249Z,6.30
2018-12-12T14:36:41.893Z,6.30
2018-12-12T14:39:10.882Z,6.30
2018-12-12T14:41:44.480Z,6.30
2018-12-12T14:44:13.779Z,6.20
2018-12-12T14:46:49.574Z,6.30
2018-12-12T14:49:18.827Z,6.20
2018-12-12T14:51:55.357Z,6.20
2018-12-12T14:54:24.360Z,6.20
2018-12-12T14:56:54.745Z,6.20
2018-12-12T14:59:23.910Z,6.20
2018-12-12T15:02:01.190Z,6.20
2018-12-12T15:04:35.723Z,6.20
2018-12-12T15:07:01.429Z,6.20
2018-12-12T15:09:30.728Z,6.20
2018-12-12T15:12:03.495Z,6.20
2018-12-12T15:14:32.532Z,6.10
2018-12-12T15:17:08.791Z,6.10
2018-12-12T15:19:38.210Z,6.10
2018-12-12T15:22:11.204Z,6.10
2018-12-12T15:24:40.235Z,6.00
2018-12-12T15:27:16.283Z,6.00
2018-12-12T15:29:45.340Z,6.00
2018-12-12T15:32:15.325Z,5.90
2018-12-12T15:34:44.687Z,5.90
2018-12-12T15:37:20.975Z,5.80
2018-12-12T15:39:50.053Z,5.70
2018-12-12T15:42:20.103Z,5.70
2018-12-12T15:44:49.137Z,5.70
2018-12-12T15:47:22.213Z,5.50
2018-12-12T15:49:51.195Z,5.50
2018-12-12T15:52:27.627Z,5.40
2018-12-12T15:54:56.720Z,5.40
2018-12-12T15:57:29.383Z,5.30
2018-12-12T15:59:58.484Z,5.30
2018-12-12T16:02:32.490Z,5.30
2018-12-12T16:05:01.576Z,5.20
2018-12-12T16:07:33.913Z,5.10
2018-12-12T16:10:05.015Z,5.10
2018-12-12T16:12:37.207Z,5.10
2018-12-12T16:15:06.473Z,5.00
2018-12-12T16:17:43.325Z,5.00
2018-12-12T16:20:12.488Z,4.90
2018-12-12T16:22:41.800Z,4.90
2018-12-12T16:25:10.971Z,4.90
2018-12-12T16:27:44.904Z,5.00
2018-12-12T16:30:15.336Z,4.90
2018-12-12T16:32:48.459Z,4.90
2018-12-12T16:35:17.611Z,4.80
2018-12-12T16:37:54.629Z,4.80
2018-12-12T16:40:23.812Z,4.80
2018-12-12T16:42:54.590Z,4.80
2018-12-12T16:45:23.803Z,4.70
2018-12-12T16:48:00.946Z,4.70
2018-12-12T16:50:30.362Z,4.70
2018-12-12T16:53:00.573Z,4.70
2018-12-12T16:55:29.666Z,4.70
2018-12-12T16:58:03.885Z,4.70
2018-12-12T17:00:33.134Z,4.60
2018-12-12T17:03:09.801Z,4.70
2018-12-12T17:05:39.160Z,4.60
2018-12-12T17:08:12.255Z,4.60
2018-12-12T17:10:41.959Z,4.50
2018-12-12T17:13:18.863Z,4.40
2018-12-12T17:15:48.100Z,4.50
2018-12-12T17:18:17.218Z,4.40
2018-12-12T17:20:46.756Z,4.50
2018-12-12T17:23:19.539Z,4.40
2018-12-12T17:25:48.805Z,4.40
2018-12-12T17:28:21.734Z,4.50
2018-12-12T17:30:50.749Z,4.40
2018-12-12T17:33:24.630Z,4.40
2018-12-12T17:35:53.955Z,4.40
2018-12-12T17:38:26.401Z,4.50
2018-12-12T17:40:55.494Z,4.50
2018-12-12T17:43:33.795Z,4.50
2018-12-12T17:46:03.292Z,4.50
2018-12-12T17:48:32.461Z,4.50
2018-12-12T17:51:01.942Z,4.50
2018-12-12T17:53:34.398Z,4.40
2018-12-12T17:56:03.444Z,4.40
2018-12-12T17:58:40.056Z,4.40
2018-12-12T18:01:09.627Z,4.40
2018-12-12T18:03:41.574Z,4.40
2018-12-12T18:06:10.649Z,4.40
2018-12-12T18:08:42.869Z,4.40
2018-12-12T18:11:12.130Z,4.40
2018-12-12T18:13:48.984Z,4.40
2018-12-12T18:16:18.401Z,4.40
2018-12-12T18:18:48.109Z,4.50
2018-12-12T18:21:17.205Z,4.50
2018-12-12T18:23:52.418Z,4.50
2018-12-12T18:26:23.312Z,4.50
2018-12-12T18:28:56.204Z,4.50
2018-12-12T18:31:25.848Z,4.50
2018-12-12T18:33:58.393Z,4.50
2018-12-12T18:36:27.653Z,4.50
2018-12-12T18:39:07.250Z,4.50
2018-12-12T18:41:36.596Z,4.60
2018-12-12T18:44:06.317Z,4.50
2018-12-12T18:46:35.388Z,4.50
2018-12-12T18:49:08.956Z,4.50
2018-12-12T18:51:38.258Z,4.50
2018-12-12T18:54:11.371Z,4.50
2018-12-12T18:56:40.645Z,4.50
2018-12-12T18:59:19.179Z,4.60
2018-12-12T19:01:48.538Z,4.60
2018-12-12T19:04:17.641Z,4.60
2018-12-12T19:06:46.694Z,4.60
2018-12-12T19:09:21.023Z,4.70
2018-12-12T19:11:51.082Z,4.70
2018-12-12T19:14:24.076Z,4.70
2018-12-12T19:16:53.419Z,4.70
2018-12-12T19:19:26.361Z,4.70
2018-12-12T19:21:55.807Z,4.70
2018-12-12T19:24:28.523Z,4.70
2018-12-12T19:26:57.790Z,4.70
2018-12-12T19:29:32.169Z,4.70
2018-12-12T19:32:01.392Z,4.60
2018-12-12T19:34:35.315Z,4.70
2018-12-12T19:37:04.890Z,4.70
2018-12-12T19:39:41.324Z,4.70
2018-12-12T19:42:10.736Z,4.70
2018-12-12T19:44:41.235Z,4.70
2018-12-12T19:47:10.563Z,4.70
2018-12-12T19:49:43.694Z,4.80
2018-12-12T19:52:13.369Z,4.90
2018-12-12T19:54:46.215Z,4.80
2018-12-12T19:57:15.571Z,4.80
2018-12-12T19:59:48.821Z,4.90
2018-12-12T20:02:19.028Z,4.90
2018-12-12T20:04:52.469Z,4.90
2018-12-12T20:07:21.754Z,4.90
2018-12-12T20:09:54.282Z,4.90
2018-12-12T20:12:23.771Z,4.80
2018-12-12T20:14:56.526Z,4.80
2018-12-12T20:17:25.810Z,4.80
2018-12-12T20:19:59.835Z,4.80
2018-12-12T20:22:29.481Z,4.70
2018-12-12T20:25:06.357Z,4.80
2018-12-12T20:27:35.901Z,4.70
2018-12-12T20:30:06.848Z,4.70
2018-12-12T20:32:36.188Z,4.60
2018-12-12T20:35:08.778Z,4.50
2018-12-12T20:37:38.198Z,4.50
2018-12-12T20:40:15.485Z,4.50
2018-12-12T20:42:44.943Z,4.50
2018-12-12T20:45:17.547Z,4.40
2018-12-12T20:47:46.840Z,4.40
2018-12-12T20:50:18.282Z,4.40
2018-12-12T20:52:47.708Z,4.30
2018-12-12T20:55:21.339Z,4.40
2018-12-12T20:57:51.765Z,4.30
2018-12-12T21:00:24.555Z,4.30
2018-12-12T21:02:53.943Z,4.30
2018-12-12T21:05:28.111Z,4.30
2018-12-12T21:07:57.659Z,4.20
2018-12-12T21:10:28.235Z,4.20
2018-12-12T21:12:57.546Z,4.10
2018-12-12T21:15:30.647Z,4.10
2018-12-12T21:18:00.026Z,4.10
2018-12-12T21:20:32.845Z,4.10
2018-12-12T21:23:02.696Z,4.00
2018-12-12T21:25:36.328Z,4.00
2018-12-12T21:28:05.518Z,3.90
2018-12-12T21:30:38.610Z,3.90
2018-12-12T21:33:08.052Z,3.90
2018-12-12T21:35:41.502Z,3.90
2018-12-12T21:38:11.089Z,3.90
2018-12-12T21:40:48.115Z,3.80
2018-12-12T21:43:18.245Z,3.80
2018-12-12T21:45:47.582Z,3.80
2018-12-12T21:48:16.942Z,3.80
2018-12-12T21:50:53.577Z,3.70
2018-12-12T21:53:22.783Z,3.70
2018-12-12T21:55:53.573Z,3.70
2018-12-12T21:58:22.742Z,3.70
2018-12-12T22:00:55.606Z,3.70
2018-12-12T22:03:24.746Z,3.70
2018-12-12T22:06:07.364Z,3.70
2018-12-12T22:08:32.794Z,3.80
2018-12-12T22:11:03.011Z,3.80
2018-12-12T22:13:33.135Z,3.80
2018-12-12T22:16:07.068Z,3.80
2018-12-12T22:18:36.392Z,3.90
2018-12-12T22:21:08.468Z,3.90
2018-12-12T22:23:37.734Z,4.00
2018-12-12T22:26:17.095Z,3.90
2018-12-12T22:28:46.945Z,3.90
2018-12-12T22:31:16.200Z,3.90
2018-12-12T22:33:45.644Z,3.90
2018-12-12T22:36:18.248Z,4.00
2018-12-12T22:38:47.345Z,4.00
2018-12-12T22:41:19.233Z,4.00
2018-12-12T22:43:48.340Z,4.10
2018-12-12T22:46:24.721Z,4.10
2018-12-12T22:48:53.970Z,4.10
2018-12-12T22:51:24.415Z,4.10
2018-12-12T22:53:53.820Z,4.20
2018-12-12T22:56:26.251Z,4.20
2018-12-12T22:58:55.331Z,4.20
2018-12-12T23:01:32.980Z,4.30
2018-12-12T23:04:02.179Z,4.30
2018-12-12T23:06:31.861Z,4.30
2018-12-12T23:09:01.338Z,4.30
2018-12-12T23:11:38.965Z,4.20
2018-12-12T23:14:08.112Z,4.20
2018-12-12T23:16:38.365Z,4.20
2018-12-12T23:19:07.453Z,4.30
2018-12-12T23:21:43.703Z,4.20
2018-12-12T23:24:12.691Z,4.20
2018-12-12T23:26:43.016Z,4.20
2018-12-12T23:29:12.290Z,4.20
2018-12-12T23:31:46.874Z,4.20
2018-12-12T23:34:15.919Z,4.20
2018-12-12T23:36:49.018Z,4.10
2018-12-12T23:39:18.075Z,4.10
2018-12-12T23:41:50.938Z,4.10
2018-12-12T23:44:20.285Z,4.10
2018-12-12T23:46:56.698Z,4.00
2018-12-12T23:49:25.790Z,4.00
2018-12-12T23:51:57.893Z,4.00
2018-12-12T23:54:26.892Z,4.00
2018-12-12T23:57:03.537Z,4.00
2018-12-12T23:59:32.851Z,4.00
